createdAt,value
2024-03-30T00:00:16.615Z,7.63
2024-03-30T00:01:17.197Z,7.61
2024-03-30T00:02:16.769Z,7.63
2024-03-30T00:03:16.343Z,7.76
2024-03-30T00:04:16.924Z,7.74
2024-03-30T00:05:16.501Z,7.74
2024-03-30T00:06:17.043Z,7.73
2024-03-30T00:07:16.604Z,7.77
2024-03-30T00:08:17.156Z,7.78
2024-03-30T00:09:16.691Z,7.78
2024-03-30T00:10:17.266Z,7.78
2024-03-30T00:11:16.835Z,7.78
2024-03-30T00:12:16.467Z,7.78
2024-03-30T00:13:17.049Z,7.77
2024-03-30T00:14:16.563Z,7.74
2024-03-30T00:15:17.121Z,7.74
2024-03-30T00:16:16.688Z,7.77
2024-03-30T00:17:17.235Z,7.81
2024-03-30T00:18:16.777Z,7.78
2024-03-30T00:19:17.313Z,7.76
2024-03-30T00:20:16.916Z,7.73
2024-03-30T00:21:16.548Z,7.74
2024-03-30T00:22:17.145Z,7.74
2024-03-30T00:23:16.678Z,7.73
2024-03-30T00:24:17.253Z,7.73
2024-03-30T00:25:16.790Z,7.67
2024-03-30T00:26:16.338Z,7.68
2024-03-30T00:27:16.903Z,7.60
2024-03-30T00:28:16.459Z,7.63
2024-03-30T00:29:17.013Z,7.58
2024-03-30T00:30:16.574Z,7.57
2024-03-30T00:31:17.134Z,7.56
2024-03-30T00:32:16.707Z,7.56
2024-03-30T00:33:17.244Z,7.56
2024-03-30T00:34:16.765Z,7.54
2024-03-30T00:35:16.421Z,7.57
2024-03-30T00:36:17.024Z,7.63
2024-03-30T00:37:16.574Z,7.63
2024-03-30T00:38:17.171Z,7.60
2024-03-30T00:39:16.752Z,7.64
2024-03-30T00:40:17.349Z,7.63
2024-03-30T00:41:16.903Z,7.63
2024-03-30T00:42:16.474Z,7.64
2024-03-30T00:43:17.034Z,7.64
2024-03-30T00:44:16.563Z,7.63
2024-03-30T00:45:17.111Z,7.61
2024-03-30T00:46:16.655Z,7.63
2024-03-30T00:47:17.205Z,7.67
2024-03-30T00:48:16.830Z,7.66
2024-03-30T00:49:16.453Z,7.67
2024-03-30T00:50:17.077Z,7.66
2024-03-30T00:51:16.669Z,7.61
2024-03-30T00:52:17.230Z,7.61
2024-03-30T00:53:16.736Z,7.61
2024-03-30T00:54:17.268Z,7.61
2024-03-30T00:55:16.809Z,7.63
2024-03-30T00:56:16.358Z,7.63
2024-03-30T00:57:16.930Z,7.61
2024-03-30T00:58:16.495Z,7.61
2024-03-30T00:59:17.031Z,7.63
2024-03-30T01:00:16.563Z,7.68
2024-03-30T01:01:17.090Z,7.68
2024-03-30T01:02:16.614Z,7.66
2024-03-30T01:03:17.130Z,7.64
2024-03-30T01:04:16.649Z,7.70
2024-03-30T01:05:17.250Z,7.67
2024-03-30T01:06:19.680Z,7.66
2024-03-30T01:07:16.411Z,7.61
2024-03-30T01:08:16.925Z,7.66
2024-03-30T01:09:16.444Z,7.57
2024-03-30T01:10:16.980Z,7.60
2024-03-30T01:11:16.533Z,7.54
2024-03-30T01:12:17.103Z,7.57
2024-03-30T01:13:16.934Z,7.56
2024-03-30T01:14:16.474Z,7.56
2024-03-30T01:15:16.991Z,7.57
2024-03-30T01:16:16.576Z,7.56
2024-03-30T01:17:16.423Z,7.58
2024-03-30T01:18:16.966Z,7.63
2024-03-30T01:19:16.505Z,7.63
2024-03-30T01:20:17.049Z,7.63
2024-03-30T01:21:21.694Z,7.60
2024-03-30T01:22:16.814Z,7.61
2024-03-30T01:23:16.336Z,7.58
2024-03-30T01:24:16.900Z,7.66
2024-03-30T01:25:16.421Z,7.64
2024-03-30T01:26:16.959Z,7.68
2024-03-30T01:27:16.530Z,7.61
2024-03-30T01:28:17.077Z,7.61
2024-03-30T01:29:16.603Z,7.57
2024-03-30T01:30:17.135Z,7.61
2024-03-30T01:31:16.739Z,7.61
2024-03-30T01:32:17.299Z,7.57
2024-03-30T01:33:16.862Z,7.56
2024-03-30T01:34:16.391Z,7.56
2024-03-30T01:35:16.984Z,7.57
2024-03-30T01:36:16.664Z,7.53
2024-03-30T01:37:17.220Z,7.53
2024-03-30T01:38:16.776Z,7.54
2024-03-30T01:39:17.310Z,7.53
2024-03-30T01:40:16.827Z,7.51
2024-03-30T01:41:16.389Z,7.51
2024-03-30T01:42:16.916Z,7.56
2024-03-30T01:43:16.481Z,7.56
2024-03-30T01:44:17.022Z,7.56
2024-03-30T01:45:16.552Z,7.58
2024-03-30T01:46:17.112Z,7.56
2024-03-30T01:47:16.647Z,7.57
2024-03-30T01:48:17.200Z,7.54
2024-03-30T01:49:16.759Z,7.67
2024-03-30T01:50:16.329Z,7.60
2024-03-30T01:51:16.872Z,7.57
2024-03-30T01:52:16.417Z,7.53
2024-03-30T01:53:16.962Z,7.60
2024-03-30T01:54:16.533Z,7.58
2024-03-30T01:55:17.089Z,7.56
2024-03-30T01:56:16.631Z,7.50
2024-03-30T01:57:17.149Z,7.47
2024-03-30T01:58:16.675Z,7.49
2024-03-30T01:59:17.184Z,7.45
2024-03-30T02:00:16.736Z,7.46
2024-03-30T02:01:17.294Z,7.47
2024-03-30T02:02:16.849Z,7.46
2024-03-30T02:03:16.398Z,7.43
2024-03-30T02:04:16.941Z,7.45
2024-03-30T02:05:16.500Z,7.46
2024-03-30T02:06:17.009Z,7.40
2024-03-30T02:07:16.539Z,7.40
2024-03-30T02:08:17.057Z,7.40
2024-03-30T02:09:16.620Z,7.40
2024-03-30T02:10:17.199Z,7.51
2024-03-30T02:11:16.770Z,7.51
2024-03-30T02:12:17.318Z,7.46
2024-03-30T02:13:16.873Z,7.45
2024-03-30T02:14:16.479Z,7.43
2024-03-30T02:15:17.043Z,7.39
2024-03-30T02:16:16.566Z,7.56
2024-03-30T02:17:17.097Z,7.53
2024-03-30T02:18:16.644Z,7.53
2024-03-30T02:19:17.184Z,7.49
2024-03-30T02:20:16.756Z,7.42
2024-03-30T02:21:17.322Z,7.40
2024-03-30T02:22:16.901Z,7.38
2024-03-30T02:23:16.444Z,7.42
2024-03-30T02:24:17.025Z,7.42
2024-03-30T02:25:16.670Z,7.38
2024-03-30T02:26:16.466Z,7.38
2024-03-30T02:27:17.027Z,7.35
2024-03-30T02:28:16.614Z,7.38
2024-03-30T02:29:17.198Z,7.36
2024-03-30T02:30:16.737Z,7.36
2024-03-30T02:31:16.364Z,7.38
2024-03-30T02:32:16.908Z,7.53
2024-03-30T02:33:16.466Z,7.47
2024-03-30T02:34:17.028Z,7.49
2024-03-30T02:35:16.580Z,7.49
2024-03-30T02:36:17.092Z,7.50
2024-03-30T02:37:16.651Z,7.51
2024-03-30T02:38:17.210Z,7.51
2024-03-30T02:39:16.786Z,7.50
2024-03-30T02:40:17.363Z,7.45
2024-03-30T02:41:16.889Z,7.45
2024-03-30T02:42:16.413Z,7.45
2024-03-30T02:43:16.981Z,7.42
2024-03-30T02:44:16.507Z,7.40
2024-03-30T02:45:17.046Z,7.39
2024-03-30T02:46:16.550Z,7.38
2024-03-30T02:47:17.071Z,7.36
2024-03-30T02:48:16.620Z,7.38
2024-03-30T02:49:17.166Z,7.35
2024-03-30T02:50:16.685Z,7.35
2024-03-30T02:51:17.239Z,7.35
2024-03-30T02:52:16.774Z,7.32
2024-03-30T02:53:16.337Z,7.30
2024-03-30T02:54:16.858Z,7.32
2024-03-30T02:55:16.426Z,7.39
2024-03-30T02:56:16.949Z,7.33
2024-03-30T02:57:16.485Z,7.35
2024-03-30T02:58:17.018Z,7.35
2024-03-30T02:59:16.580Z,7.42
2024-03-30T03:00:17.139Z,7.36
2024-03-30T03:01:16.689Z,7.35
2024-03-30T03:02:17.276Z,7.33
2024-03-30T03:03:16.812Z,7.26
2024-03-30T03:04:16.372Z,7.28
2024-03-30T03:05:16.920Z,7.51
2024-03-30T03:06:16.475Z,7.47
2024-03-30T03:07:17.013Z,7.42
2024-03-30T03:08:16.523Z,7.38
2024-03-30T03:09:17.053Z,7.36
2024-03-30T03:10:16.599Z,7.36
2024-03-30T03:11:17.225Z,7.32
2024-03-30T03:12:16.776Z,7.36
2024-03-30T03:13:17.316Z,7.33
2024-03-30T03:14:16.852Z,7.33
2024-03-30T03:15:16.388Z,7.26
2024-03-30T03:16:16.936Z,7.32
2024-03-30T03:17:16.461Z,7.51
2024-03-30T03:18:16.996Z,7.73
2024-03-30T03:19:16.535Z,8.05
2024-03-30T03:20:17.116Z,7.97
2024-03-30T03:21:16.628Z,7.84
2024-03-30T03:22:17.138Z,7.78
2024-03-30T03:23:16.654Z,7.64
2024-03-30T03:24:17.204Z,7.60
2024-03-30T03:25:16.748Z,7.74
2024-03-30T03:26:16.320Z,7.66
2024-03-30T03:27:16.847Z,7.63
2024-03-30T03:28:16.384Z,7.54
2024-03-30T03:29:16.933Z,7.56
2024-03-30T03:30:16.472Z,7.67
2024-03-30T03:31:17.042Z,7.68
2024-03-30T03:32:16.573Z,7.64
2024-03-30T03:33:17.085Z,7.67
2024-03-30T03:34:16.582Z,7.76
2024-03-30T03:35:16.600Z,7.85
2024-03-30T03:36:17.159Z,8.04
2024-03-30T03:37:16.742Z,8.12
2024-03-30T03:38:17.304Z,8.06
2024-03-30T03:39:16.886Z,7.95
2024-03-30T03:40:16.389Z,7.90
2024-03-30T03:41:16.901Z,7.81
2024-03-30T03:42:16.414Z,7.77
2024-03-30T03:43:16.917Z,7.92
2024-03-30T03:44:16.465Z,8.02
2024-03-30T03:45:17.041Z,8.25
2024-03-30T03:46:16.593Z,8.13
2024-03-30T03:47:17.136Z,8.12
2024-03-30T03:48:16.670Z,8.11
2024-03-30T03:49:17.226Z,8.08
2024-03-30T03:50:16.740Z,8.29
2024-03-30T03:51:17.277Z,8.44
2024-03-30T03:52:16.818Z,8.65
2024-03-30T03:53:16.346Z,8.74
2024-03-30T03:54:16.846Z,8.88
2024-03-30T03:55:16.357Z,8.81
2024-03-30T03:56:16.872Z,8.64
2024-03-30T03:57:16.456Z,8.58
2024-03-30T03:58:17.003Z,8.44
2024-03-30T03:59:16.542Z,8.37
2024-03-30T04:00:17.072Z,8.23
2024-03-30T04:01:16.597Z,8.12
2024-03-30T04:02:17.149Z,8.06
2024-03-30T04:03:16.670Z,8.06
2024-03-30T04:04:17.201Z,8.05
2024-03-30T04:05:16.735Z,7.98
2024-03-30T04:06:17.279Z,7.97
2024-03-30T04:07:16.829Z,7.90
2024-03-30T04:08:16.338Z,7.90
2024-03-30T04:09:16.919Z,7.94
2024-03-30T04:10:16.437Z,7.95
2024-03-30T04:11:16.978Z,7.95
2024-03-30T04:12:16.518Z,7.88
2024-03-30T04:13:17.054Z,7.83
2024-03-30T04:14:16.628Z,7.84
2024-03-30T04:15:17.204Z,7.80
2024-03-30T04:16:16.755Z,7.81
2024-03-30T04:17:16.335Z,7.83
2024-03-30T04:18:16.875Z,7.76
2024-03-30T04:19:16.401Z,7.66
2024-03-30T04:20:17.015Z,7.77
2024-03-30T04:21:16.588Z,7.84
2024-03-30T04:22:17.131Z,7.71
2024-03-30T04:23:16.667Z,7.67
2024-03-30T04:24:17.249Z,7.66
2024-03-30T04:25:16.814Z,7.68
2024-03-30T04:26:16.369Z,7.66
2024-03-30T04:27:16.889Z,7.61
2024-03-30T04:28:16.411Z,7.54
2024-03-30T04:29:16.990Z,7.49
2024-03-30T04:30:16.551Z,7.50
2024-03-30T04:31:17.090Z,7.49
2024-03-30T04:32:16.606Z,7.61
2024-03-30T04:33:17.197Z,7.61
2024-03-30T04:34:16.743Z,7.57
2024-03-30T04:35:16.294Z,7.49
2024-03-30T04:36:16.814Z,7.49
2024-03-30T04:37:16.359Z,7.57
2024-03-30T04:38:16.910Z,7.61
2024-03-30T04:39:16.448Z,7.64
2024-03-30T04:40:16.988Z,7.61
2024-03-30T04:41:16.537Z,7.74
2024-03-30T04:42:17.082Z,7.87
2024-03-30T04:43:16.632Z,7.87
2024-03-30T04:44:17.193Z,7.88
2024-03-30T04:45:16.709Z,7.81
2024-03-30T04:46:17.221Z,7.81
2024-03-30T04:47:16.758Z,7.76
2024-03-30T04:48:17.300Z,7.73
2024-03-30T04:49:16.809Z,7.73
2024-03-30T04:50:16.344Z,7.73
2024-03-30T04:51:16.893Z,7.71
2024-03-30T04:52:16.432Z,7.74
2024-03-30T04:53:17.006Z,7.73
2024-03-30T04:54:16.542Z,7.81
2024-03-30T04:55:17.065Z,8.47
2024-03-30T04:56:16.618Z,8.43
2024-03-30T04:57:17.147Z,8.28
2024-03-30T04:58:16.668Z,8.13
2024-03-30T04:59:17.216Z,8.05
2024-03-30T05:00:16.765Z,8.12
2024-03-30T05:01:17.327Z,8.28
2024-03-30T05:02:16.898Z,8.25
2024-03-30T05:03:16.409Z,8.28
2024-03-30T05:04:16.948Z,8.64
2024-03-30T05:05:16.504Z,9.08
2024-03-30T05:06:17.108Z,9.26
2024-03-30T05:07:16.649Z,9.43
2024-03-30T05:08:17.158Z,9.55
2024-03-30T05:09:16.699Z,9.61
2024-03-30T05:10:17.293Z,9.75
2024-03-30T05:11:16.859Z,9.85
2024-03-30T05:12:16.395Z,9.93
2024-03-30T05:13:16.935Z,10.00
2024-03-30T05:14:16.449Z,10.09
2024-03-30T05:15:17.037Z,10.13
2024-03-30T05:16:16.591Z,10.19
2024-03-30T05:17:17.137Z,10.26
2024-03-30T05:18:16.662Z,10.33
2024-03-30T05:19:17.161Z,10.16
2024-03-30T05:20:16.692Z,9.75
2024-03-30T05:21:17.219Z,9.80
2024-03-30T05:22:16.784Z,9.71
2024-03-30T05:23:16.326Z,9.84
2024-03-30T05:24:16.872Z,10.20
2024-03-30T05:25:16.422Z,10.48
2024-03-30T05:26:16.972Z,10.58
2024-03-30T05:27:16.551Z,10.57
2024-03-30T05:28:17.062Z,10.58
2024-03-30T05:29:16.595Z,10.58
2024-03-30T05:30:17.110Z,10.64
2024-03-30T05:31:16.667Z,10.65
2024-03-30T05:32:17.218Z,10.76
2024-03-30T05:33:16.864Z,10.93
2024-03-30T05:34:16.411Z,11.06
2024-03-30T05:35:16.983Z,11.07
2024-03-30T05:36:16.542Z,11.09
2024-03-30T05:37:17.053Z,11.07
2024-03-30T05:38:16.594Z,10.93
2024-03-30T05:39:17.123Z,10.76
2024-03-30T05:40:16.673Z,10.24
2024-03-30T05:41:17.243Z,9.84
2024-03-30T05:42:16.781Z,9.84
2024-03-30T05:43:17.293Z,9.82
2024-03-30T05:44:16.879Z,9.61
2024-03-30T05:45:16.454Z,9.61
2024-03-30T05:46:17.017Z,9.62
2024-03-30T05:47:16.593Z,9.61
2024-03-30T05:48:17.143Z,9.54
2024-03-30T05:49:16.696Z,9.55
2024-03-30T05:50:17.276Z,9.44
2024-03-30T05:51:16.848Z,9.40
2024-03-30T05:52:16.377Z,9.41
2024-03-30T05:53:16.883Z,9.38
2024-03-30T05:54:16.512Z,9.40
2024-03-30T05:55:17.072Z,9.33
2024-03-30T05:56:16.610Z,9.08
2024-03-30T05:57:17.116Z,9.01
2024-03-30T05:58:16.674Z,9.03
2024-03-30T05:59:17.204Z,9.08
2024-03-30T06:00:16.770Z,9.10
2024-03-30T06:01:16.361Z,9.03
2024-03-30T06:02:16.897Z,9.05
2024-03-30T06:03:16.440Z,9.26
2024-03-30T06:04:17.049Z,9.58
2024-03-30T06:05:16.581Z,9.71
2024-03-30T06:06:17.100Z,9.98
2024-03-30T06:07:16.649Z,10.20
2024-03-30T06:08:17.211Z,10.34
2024-03-30T06:09:16.760Z,10.36
2024-03-30T06:10:16.369Z,10.47
2024-03-30T06:11:16.916Z,10.54
2024-03-30T06:12:16.463Z,10.43
2024-03-30T06:13:17.040Z,10.28
2024-03-30T06:14:16.575Z,10.02
2024-03-30T06:15:17.086Z,9.91
2024-03-30T06:16:16.625Z,9.65
2024-03-30T06:17:17.169Z,9.68
2024-03-30T06:18:16.707Z,9.71
2024-03-30T06:19:17.228Z,9.69
2024-03-30T06:20:16.765Z,9.66
2024-03-30T06:21:19.608Z,9.57
2024-03-30T06:22:17.050Z,9.59
2024-03-30T06:23:16.636Z,9.54
2024-03-30T06:24:17.157Z,9.55
2024-03-30T06:25:16.668Z,9.58
2024-03-30T06:26:17.223Z,9.54
2024-03-30T06:27:16.801Z,9.57
2024-03-30T06:28:16.347Z,9.61
2024-03-30T06:29:16.919Z,9.64
2024-03-30T06:30:16.445Z,9.55
2024-03-30T06:31:16.976Z,9.58
2024-03-30T06:32:16.530Z,9.59
2024-03-30T06:33:17.048Z,9.58
2024-03-30T06:34:16.586Z,9.53
2024-03-30T06:35:17.123Z,9.47
2024-03-30T06:36:16.660Z,9.43
2024-03-30T06:37:17.192Z,9.50
2024-03-30T06:38:16.752Z,9.53
2024-03-30T06:39:17.311Z,9.47
2024-03-30T06:40:16.879Z,10.03
2024-03-30T06:41:16.431Z,10.27
2024-03-30T06:42:16.978Z,10.54
2024-03-30T06:43:16.530Z,10.86
2024-03-30T06:44:17.076Z,10.76
2024-03-30T06:45:16.597Z,10.81
2024-03-30T06:46:17.125Z,10.68
2024-03-30T06:47:16.661Z,10.54
2024-03-30T06:48:17.205Z,10.43
2024-03-30T06:49:16.783Z,10.36
2024-03-30T06:50:16.365Z,10.43
2024-03-30T06:51:16.934Z,10.48
2024-03-30T06:52:16.446Z,10.60
2024-03-30T06:53:16.968Z,10.74
2024-03-30T06:54:16.511Z,10.81
2024-03-30T06:55:17.086Z,10.88
2024-03-30T06:56:16.627Z,10.96
2024-03-30T06:57:17.183Z,11.14
2024-03-30T06:58:16.710Z,11.28
2024-03-30T06:59:17.299Z,11.50
2024-03-30T07:00:16.862Z,11.73
2024-03-30T07:01:16.403Z,11.73
2024-03-30T07:02:17.002Z,11.99
2024-03-30T07:03:16.630Z,12.16
2024-03-30T07:04:17.178Z,12.13
2024-03-30T07:05:16.708Z,12.25
2024-03-30T07:06:17.248Z,12.59
2024-03-30T07:07:17.056Z,12.88
2024-03-30T07:08:16.660Z,13.00
2024-03-30T07:09:17.187Z,13.15
2024-03-30T07:10:16.785Z,13.34
2024-03-30T07:11:16.361Z,13.35
2024-03-30T07:12:16.906Z,13.48
2024-03-30T07:13:16.409Z,13.77
2024-03-30T07:14:16.962Z,13.87
2024-03-30T07:15:16.514Z,14.25
2024-03-30T07:16:17.233Z,14.51
2024-03-30T07:17:16.768Z,14.66
2024-03-30T07:18:16.323Z,14.91
2024-03-30T07:19:16.891Z,14.93
2024-03-30T07:20:16.450Z,15.12
2024-03-30T07:21:16.970Z,15.32
2024-03-30T07:22:16.511Z,15.74
2024-03-30T07:23:17.041Z,15.67
2024-03-30T07:24:16.592Z,15.63
2024-03-30T07:25:17.175Z,15.92
2024-03-30T07:26:16.720Z,16.21
2024-03-30T07:27:17.274Z,16.24
2024-03-30T07:28:16.855Z,16.46
2024-03-30T07:29:16.372Z,16.81
2024-03-30T07:30:16.904Z,16.90
2024-03-30T07:31:16.423Z,16.97
2024-03-30T07:32:17.010Z,17.23
2024-03-30T07:33:16.537Z,17.49
2024-03-30T07:34:17.096Z,18.05
2024-03-30T07:35:16.637Z,18.43
2024-03-30T07:36:17.170Z,18.79
2024-03-30T07:37:16.700Z,18.95
2024-03-30T07:38:17.272Z,19.20
2024-03-30T07:39:16.827Z,19.36
2024-03-30T07:40:16.402Z,19.46
2024-03-30T07:41:16.934Z,19.58
2024-03-30T07:42:16.440Z,19.84
2024-03-30T07:43:17.014Z,19.85
2024-03-30T07:44:16.604Z,19.99
2024-03-30T07:45:17.230Z,20.31
2024-03-30T07:46:16.768Z,20.02
2024-03-30T07:47:17.327Z,18.92
2024-03-30T07:48:16.903Z,19.41
2024-03-30T07:49:16.462Z,19.20
2024-03-30T07:50:17.043Z,19.02
2024-03-30T07:51:16.562Z,19.06
2024-03-30T07:52:17.103Z,19.84
2024-03-30T07:53:16.717Z,19.82
2024-03-30T07:54:16.435Z,20.50
2024-03-30T07:55:16.991Z,20.75
2024-03-30T07:56:16.524Z,20.62
2024-03-30T07:57:17.105Z,20.59
2024-03-30T07:58:16.694Z,20.44
2024-03-30T07:59:17.206Z,20.46
2024-03-30T08:00:16.737Z,20.76
2024-03-30T08:01:17.291Z,21.16
2024-03-30T08:02:16.842Z,21.37
2024-03-30T08:03:16.415Z,21.31
2024-03-30T08:04:16.985Z,21.43
2024-03-30T08:05:16.570Z,20.91
2024-03-30T08:06:17.165Z,20.08
2024-03-30T08:07:16.724Z,20.21
2024-03-30T08:08:17.273Z,20.08
2024-03-30T08:09:16.789Z,20.46
2024-03-30T08:10:17.315Z,20.70
2024-03-30T08:11:16.885Z,20.70
2024-03-30T08:12:16.442Z,21.03
2024-03-30T08:13:16.978Z,20.26
2024-03-30T08:14:16.510Z,19.91
2024-03-30T08:15:17.041Z,20.50
2024-03-30T08:16:16.565Z,21.17
2024-03-30T08:17:17.120Z,21.54
2024-03-30T08:18:16.670Z,21.68
2024-03-30T08:19:17.181Z,22.12
2024-03-30T08:20:16.694Z,22.38
2024-03-30T08:21:17.246Z,21.98
2024-03-30T08:22:16.806Z,20.99
2024-03-30T08:23:16.317Z,21.09
2024-03-30T08:24:16.845Z,21.54
2024-03-30T08:25:16.374Z,21.60
2024-03-30T08:26:16.925Z,22.43
2024-03-30T08:27:16.434Z,22.45
2024-03-30T08:28:16.946Z,22.44
2024-03-30T08:29:16.465Z,21.88
2024-03-30T08:30:17.003Z,22.17
2024-03-30T08:31:16.569Z,22.50
2024-03-30T08:32:17.141Z,22.15
2024-03-30T08:33:16.700Z,22.06
2024-03-30T08:34:18.406Z,22.41
2024-03-30T08:35:17.088Z,22.34
2024-03-30T08:36:16.624Z,22.47
2024-03-30T08:37:17.193Z,22.93
2024-03-30T08:38:16.764Z,21.99
2024-03-30T08:39:16.298Z,22.10
2024-03-30T08:40:16.878Z,22.24
2024-03-30T08:41:16.621Z,22.72
2024-03-30T08:42:20.111Z,21.71
2024-03-30T08:43:17.072Z,21.45
2024-03-30T08:44:16.614Z,21.83
2024-03-30T08:45:17.155Z,22.21
2024-03-30T08:46:16.697Z,22.44
2024-03-30T08:47:17.251Z,22.43
2024-03-30T08:48:16.864Z,21.47
2024-03-30T08:49:16.369Z,21.82
2024-03-30T08:50:16.879Z,22.60
2024-03-30T08:51:16.417Z,22.55
2024-03-30T08:52:16.934Z,22.28
2024-03-30T08:53:16.443Z,22.50
2024-03-30T08:54:16.991Z,22.74
2024-03-30T08:55:16.512Z,22.00
2024-03-30T08:56:17.261Z,22.26
2024-03-30T08:57:16.858Z,22.68
2024-03-30T08:58:16.384Z,22.47
2024-03-30T08:59:16.902Z,22.86
2024-03-30T09:00:16.471Z,23.10
2024-03-30T09:01:16.838Z,23.69
2024-03-30T09:02:16.380Z,23.57
2024-03-30T09:03:16.940Z,22.23
2024-03-30T09:04:16.473Z,23.14
2024-03-30T09:05:17.022Z,23.68
2024-03-30T09:06:16.332Z,22.82
2024-03-30T09:07:16.862Z,22.88
2024-03-30T09:08:16.385Z,22.61
2024-03-30T09:09:16.915Z,22.96
2024-03-30T09:10:16.480Z,22.37
2024-03-30T09:11:17.041Z,22.38
2024-03-30T09:12:16.625Z,22.52
2024-03-30T09:13:17.151Z,23.55
2024-03-30T09:14:16.732Z,23.55
2024-03-30T09:15:17.357Z,22.90
2024-03-30T09:16:16.917Z,23.27
2024-03-30T09:17:16.484Z,23.71
2024-03-30T09:18:17.011Z,24.07
2024-03-30T09:19:16.566Z,24.40
2024-03-30T09:20:17.076Z,24.21
2024-03-30T09:21:16.608Z,24.86
2024-03-30T09:22:17.119Z,24.57
2024-03-30T09:23:16.669Z,23.92
2024-03-30T09:24:17.237Z,23.93
2024-03-30T09:25:16.816Z,22.89
2024-03-30T09:26:16.395Z,22.99
2024-03-30T09:27:16.963Z,23.51
2024-03-30T09:28:16.543Z,23.52
2024-03-30T09:29:17.101Z,23.58
2024-03-30T09:30:16.665Z,23.66
2024-03-30T09:31:17.205Z,24.24
2024-03-30T09:32:16.769Z,23.85
2024-03-30T09:33:17.300Z,24.25
2024-03-30T09:34:25.042Z,24.04
2024-03-30T09:35:17.317Z,24.02
2024-03-30T09:36:16.853Z,23.65
2024-03-30T09:37:16.401Z,23.58
2024-03-30T09:38:16.968Z,23.00
2024-03-30T09:39:16.498Z,23.12
2024-03-30T09:40:17.004Z,23.44
2024-03-30T09:41:16.598Z,22.88
2024-03-30T09:42:17.184Z,22.50
2024-03-30T09:43:16.757Z,23.13
2024-03-30T09:44:16.333Z,23.12
2024-03-30T09:45:16.905Z,23.20
2024-03-30T09:46:16.438Z,22.96
2024-03-30T09:47:16.953Z,23.24
2024-03-30T09:48:16.534Z,23.06
2024-03-30T09:49:17.096Z,22.48
2024-03-30T09:50:16.668Z,22.47
2024-03-30T09:51:17.205Z,22.19
2024-03-30T09:52:16.717Z,22.24
2024-03-30T09:53:17.278Z,22.55
2024-03-30T09:54:16.825Z,22.78
2024-03-30T09:55:16.342Z,22.78
2024-03-30T09:56:16.854Z,22.68
2024-03-30T09:57:16.374Z,22.72
2024-03-30T09:58:16.903Z,22.15
2024-03-30T09:59:16.448Z,22.19
2024-03-30T10:00:16.977Z,22.48
2024-03-30T10:01:16.549Z,22.57
2024-03-30T10:02:17.142Z,22.64
2024-03-30T10:03:16.691Z,22.44
2024-03-30T10:04:17.226Z,22.41
2024-03-30T10:05:25.554Z,22.28
2024-03-30T10:06:16.656Z,22.20
2024-03-30T10:07:17.248Z,22.24
2024-03-30T10:08:16.818Z,22.24
2024-03-30T10:09:16.392Z,22.26
2024-03-30T10:10:16.996Z,22.34
2024-03-30T10:11:16.567Z,22.27
2024-03-30T10:12:17.112Z,21.93
2024-03-30T10:13:16.701Z,21.98
2024-03-30T10:14:17.242Z,22.05
2024-03-30T10:15:16.781Z,22.19
2024-03-30T10:16:17.199Z,22.31
2024-03-30T10:17:16.733Z,22.37
2024-03-30T10:18:17.252Z,21.98
2024-03-30T10:19:16.804Z,22.06
2024-03-30T10:20:16.373Z,22.27
2024-03-30T10:21:16.949Z,22.57
2024-03-30T10:22:16.485Z,22.45
2024-03-30T10:23:17.070Z,22.51
2024-03-30T10:24:16.618Z,22.74
2024-03-30T10:25:17.210Z,22.26
2024-03-30T10:26:16.775Z,22.03
2024-03-30T10:27:16.329Z,22.24
2024-03-30T10:28:16.869Z,21.98
2024-03-30T10:29:16.393Z,21.91
2024-03-30T10:30:16.973Z,21.72
2024-03-30T10:31:16.506Z,21.43
2024-03-30T10:32:17.035Z,21.16
2024-03-30T10:33:16.585Z,21.23
2024-03-30T10:34:17.149Z,21.36
2024-03-30T10:35:16.723Z,21.51
2024-03-30T10:36:17.269Z,21.34
2024-03-30T10:37:17.047Z,20.91
2024-03-30T10:38:16.578Z,20.89
2024-03-30T10:39:17.088Z,20.91
2024-03-30T10:40:16.614Z,20.75
2024-03-30T10:41:17.150Z,20.95
2024-03-30T10:42:16.691Z,20.98
2024-03-30T10:43:17.220Z,20.93
2024-03-30T10:44:16.786Z,20.86
2024-03-30T10:45:16.322Z,20.83
2024-03-30T10:46:16.881Z,20.79
2024-03-30T10:47:16.404Z,20.82
2024-03-30T10:48:16.942Z,20.76
2024-03-30T10:49:16.463Z,20.82
2024-03-30T10:50:18.535Z,20.82
2024-03-30T10:51:17.037Z,20.78
2024-03-30T10:52:16.587Z,20.70
2024-03-30T10:53:17.089Z,20.76
2024-03-30T10:54:16.743Z,20.74
2024-03-30T10:55:17.378Z,20.74
2024-03-30T10:56:18.325Z,20.76
2024-03-30T10:57:17.292Z,20.76
2024-03-30T10:58:16.854Z,20.76
2024-03-30T10:59:16.362Z,20.72
2024-03-30T11:00:16.917Z,20.61
2024-03-30T11:01:16.465Z,20.65
2024-03-30T11:02:18.338Z,20.72
2024-03-30T11:03:16.472Z,20.72
2024-03-30T11:04:17.054Z,20.70
2024-03-30T11:05:16.619Z,20.71
2024-03-30T11:06:17.178Z,20.62
2024-03-30T11:07:16.539Z,20.54
2024-03-30T11:08:17.095Z,20.59
2024-03-30T11:09:16.604Z,20.65
2024-03-30T11:10:17.224Z,20.67
2024-03-30T11:11:16.773Z,20.65
2024-03-30T11:12:17.299Z,20.59
2024-03-30T11:13:16.901Z,20.59
2024-03-30T11:14:16.446Z,20.55
2024-03-30T11:15:17.002Z,20.59
2024-03-30T11:16:16.568Z,20.61
2024-03-30T11:17:17.144Z,20.61
2024-03-30T11:18:17.750Z,20.59
2024-03-30T11:19:16.353Z,20.65
2024-03-30T11:20:16.904Z,20.67
2024-03-30T11:21:16.465Z,20.67
2024-03-30T11:22:17.007Z,20.64
2024-03-30T11:23:16.559Z,20.64
2024-03-30T11:24:18.607Z,20.67
2024-03-30T11:25:16.443Z,20.62
2024-03-30T11:26:16.972Z,20.62
2024-03-30T11:27:16.532Z,20.61
2024-03-30T11:28:17.065Z,20.55
2024-03-30T11:29:16.594Z,20.57
2024-03-30T11:30:17.129Z,20.61
2024-03-30T11:31:16.701Z,20.58
2024-03-30T11:32:17.270Z,20.65
2024-03-30T11:33:16.790Z,20.64
2024-03-30T11:34:16.343Z,20.65
2024-03-30T11:35:16.887Z,20.61
2024-03-30T11:36:16.442Z,20.61
2024-03-30T11:37:16.947Z,20.59
2024-03-30T11:38:21.145Z,20.55
2024-03-30T11:39:16.864Z,20.55
2024-03-30T11:40:16.438Z,20.52
2024-03-30T11:41:17.027Z,20.47
2024-03-30T11:42:16.566Z,20.47
2024-03-30T11:43:17.087Z,20.46
2024-03-30T11:44:16.669Z,20.46
2024-03-30T11:45:17.247Z,20.37
2024-03-30T11:46:16.804Z,20.36
2024-03-30T11:47:16.333Z,20.48
2024-03-30T11:48:16.901Z,20.47
2024-03-30T11:49:16.401Z,20.41
2024-03-30T11:50:16.910Z,20.54
2024-03-30T11:51:16.472Z,20.61
2024-03-30T11:52:17.047Z,20.59
2024-03-30T11:53:16.574Z,20.59
2024-03-30T11:54:17.105Z,20.58
2024-03-30T11:55:16.659Z,20.47
2024-03-30T11:56:17.193Z,20.41
2024-03-30T11:57:20.052Z,20.54
2024-03-30T11:58:16.429Z,20.52
2024-03-30T11:59:16.979Z,20.55
2024-03-30T12:00:16.551Z,20.46
2024-03-30T12:01:17.109Z,20.57
2024-03-30T12:02:16.657Z,20.62
2024-03-30T12:03:17.175Z,20.55
2024-03-30T12:04:16.726Z,20.65
2024-03-30T12:05:17.281Z,20.68
2024-03-30T12:06:16.838Z,20.59
2024-03-30T12:07:16.372Z,20.72
2024-03-30T12:08:16.916Z,20.65
2024-03-30T12:09:16.437Z,20.75
2024-03-30T12:10:16.979Z,20.91
2024-03-30T12:11:16.319Z,20.91
2024-03-30T12:12:16.918Z,20.72
2024-03-30T12:13:16.443Z,20.82
2024-03-30T12:14:17.043Z,20.89
2024-03-30T12:15:16.580Z,20.92
2024-03-30T12:16:17.207Z,20.91
2024-03-30T12:17:16.754Z,20.96
2024-03-30T12:18:17.325Z,21.09
2024-03-30T12:19:16.835Z,21.16
2024-03-30T12:20:16.361Z,21.30
2024-03-30T12:21:16.994Z,21.36
2024-03-30T12:22:16.533Z,21.43
2024-03-30T12:23:17.068Z,21.45
2024-03-30T12:24:16.626Z,21.45
2024-03-30T12:25:17.305Z,21.54
2024-03-30T12:26:16.835Z,21.61
2024-03-30T12:27:16.368Z,21.66
2024-03-30T12:28:16.931Z,21.68
2024-03-30T12:29:22.320Z,21.71
2024-03-30T12:30:16.679Z,21.64
2024-03-30T12:31:17.263Z,21.41
2024-03-30T12:32:16.822Z,21.38
2024-03-30T12:33:16.426Z,21.38
2024-03-30T12:34:17.103Z,21.40
2024-03-30T12:35:16.618Z,21.31
2024-03-30T12:36:17.184Z,21.27
2024-03-30T12:37:16.772Z,21.20
2024-03-30T12:38:16.306Z,21.16
2024-03-30T12:39:16.850Z,21.19
2024-03-30T12:40:16.391Z,21.20
2024-03-30T12:41:16.977Z,21.26
2024-03-30T12:42:16.539Z,21.27
2024-03-30T12:43:17.051Z,21.30
2024-03-30T12:44:16.604Z,21.30
2024-03-30T12:45:16.403Z,21.36
2024-03-30T12:46:17.000Z,21.26
2024-03-30T12:47:16.566Z,21.24
2024-03-30T12:48:17.169Z,21.11
2024-03-30T12:49:16.713Z,21.14
2024-03-30T12:50:17.296Z,21.13
2024-03-30T12:51:16.850Z,21.19
2024-03-30T12:52:16.377Z,21.19
2024-03-30T12:53:16.902Z,21.07
2024-03-30T12:54:16.430Z,21.11
2024-03-30T12:55:17.031Z,21.19
2024-03-30T12:56:16.540Z,21.17
2024-03-30T12:57:17.057Z,21.20
2024-03-30T12:58:16.628Z,21.30
2024-03-30T12:59:17.179Z,21.33
2024-03-30T13:00:16.730Z,21.30
2024-03-30T13:01:17.298Z,21.31
2024-03-30T13:02:16.868Z,21.33
2024-03-30T13:03:16.424Z,21.48
2024-03-30T13:04:17.038Z,21.53